createdAt,value
2017-03-14T00:00:51.742Z,0
2017-03-14T00:01:51.795Z,0
2017-03-14T00:02:51.810Z,0
2017-03-14T00:03:51.468Z,0
2017-03-14T00:04:51.502Z,0
2017-03-14T00:05:51.513Z,0
2017-03-14T00:06:51.963Z,0
2017-03-14T00:07:51.973Z,0
2017-03-14T00:08:52.012Z,0
2017-03-14T00:09:51.671Z,0
2017-03-14T00:10:52.495Z,0
2017-03-14T00:11:52.526Z,0
2017-03-14T00:12:52.141Z,0
2017-03-14T00:13:52.210Z,0
2017-03-14T00:14:52.239Z,0
2017-03-14T00:15:52.281Z,0
2017-03-14T00:16:52.277Z,0
2017-03-14T00:17:52.314Z,0
2017-03-14T00:18:52.766Z,0
2017-03-14T00:19:51.591Z,0
2017-03-14T00:20:52.041Z,0
2017-03-14T00:21:52.057Z,0
2017-03-14T00:22:52.509Z,0
2017-03-14T00:23:52.128Z,0
2017-03-14T00:24:52.934Z,0
2017-03-14T00:25:52.195Z,0
2017-03-14T00:26:52.640Z,0
2017-03-14T00:27:52.675Z,0
2017-03-14T00:28:52.287Z,0
2017-03-14T00:29:52.381Z,0
2017-03-14T00:30:52.351Z,0
2017-03-14T00:31:52.390Z,0
2017-03-14T00:32:52.443Z,0
2017-03-14T00:33:51.672Z,0
2017-03-14T00:34:52.114Z,0
2017-03-14T00:35:52.136Z,0
2017-03-14T00:36:52.578Z,0
2017-03-14T00:37:52.216Z,0
2017-03-14T00:38:52.623Z,0
2017-03-14T00:39:52.652Z,0
2017-03-14T00:40:53.091Z,0
2017-03-14T00:41:53.130Z,0
2017-03-14T00:42:53.150Z,0
2017-03-14T00:43:52.007Z,0
2017-03-14T00:44:53.247Z,0
2017-03-14T00:45:53.251Z,0
2017-03-14T00:46:52.495Z,0
2017-03-14T00:47:52.934Z,0
2017-03-14T00:48:52.593Z,0
2017-03-14T00:49:52.609Z,0
2017-03-14T00:50:53.416Z,0
2017-03-14T00:51:53.451Z,0
2017-03-14T00:52:53.096Z,0
2017-03-14T00:53:53.537Z,0
2017-03-14T00:54:53.573Z,0
2017-03-14T00:55:52.411Z,0
2017-03-14T00:56:53.224Z,0
2017-03-14T00:57:53.647Z,0
2017-03-14T00:58:53.686Z,0
2017-03-14T00:59:53.340Z,0
2017-03-14T01:00:54.168Z,0
2017-03-14T01:01:53.813Z,0
2017-03-14T01:02:53.812Z,0
2017-03-14T01:03:53.874Z,0
2017-03-14T01:04:53.493Z,0
2017-03-14T01:05:54.334Z,0
2017-03-14T01:06:53.186Z,0
2017-03-14T01:07:53.594Z,0
2017-03-14T01:08:53.661Z,0
2017-03-14T01:09:53.663Z,0
2017-03-14T01:10:53.322Z,0
2017-03-14T01:11:54.525Z,0
2017-03-14T01:12:52.970Z,0
2017-03-14T01:13:53.001Z,0
2017-03-14T01:14:53.034Z,0
2017-03-14T01:15:53.883Z,0
2017-03-14T01:16:53.914Z,0
2017-03-14T01:17:54.340Z,0
2017-03-14T01:18:53.987Z,0
2017-03-14T01:19:53.620Z,0
2017-03-14T01:20:54.425Z,0
2017-03-14T01:21:54.085Z,0
2017-03-14T01:22:54.119Z,0
2017-03-14T01:23:53.749Z,0
2017-03-14T01:24:54.195Z,0
2017-03-14T01:25:53.824Z,0
2017-03-14T01:26:54.248Z,0
2017-03-14T01:27:54.280Z,0
2017-03-14T01:28:55.104Z,0
2017-03-14T01:29:53.967Z,0
2017-03-14T01:30:54.772Z,0
2017-03-14T01:31:54.393Z,0
2017-03-14T01:32:54.446Z,0
2017-03-14T01:33:54.458Z,0
2017-03-14T01:34:54.489Z,0
2017-03-14T01:35:54.551Z,0
2017-03-14T01:36:54.174Z,0
2017-03-14T01:37:54.593Z,0
2017-03-14T01:38:54.255Z,0
2017-03-14T01:39:54.661Z,0
2017-03-14T01:40:54.694Z,0
2017-03-14T01:41:54.727Z,0
2017-03-14T01:42:55.166Z,0
2017-03-14T01:43:55.204Z,0
2017-03-14T01:44:54.444Z,0
2017-03-14T01:45:54.880Z,0
2017-03-14T01:46:55.284Z,0
2017-03-14T01:47:54.947Z,0
2017-03-14T01:48:55.353Z,0
2017-03-14T01:49:55.387Z,0
2017-03-14T01:50:54.272Z,0
2017-03-14T01:51:55.448Z,0
2017-03-14T01:52:55.114Z,0
2017-03-14T01:53:55.127Z,0
2017-03-14T01:54:55.970Z,0
2017-03-14T01:55:55.591Z,0
2017-03-14T01:56:55.638Z,0
2017-03-14T01:57:56.066Z,0
2017-03-14T01:58:54.918Z,0
2017-03-14T01:59:55.349Z,0
2017-03-14T02:00:55.383Z,0
2017-03-14T02:01:55.392Z,0
2017-03-14T02:02:55.050Z,0
2017-03-14T02:03:55.484Z,0
2017-03-14T02:04:56.135Z,0
2017-03-14T02:05:55.542Z,0
2017-03-14T02:06:55.559Z,0
2017-03-14T02:07:55.622Z,0
2017-03-14T02:08:56.045Z,0
2017-03-14T02:09:55.277Z,0
2017-03-14T02:10:56.087Z,0
2017-03-14T02:11:56.120Z,0
2017-03-14T02:12:56.179Z,0
2017-03-14T02:13:55.810Z,0
2017-03-14T02:14:56.234Z,0
2017-03-14T02:15:55.858Z,0
2017-03-14T02:16:56.306Z,0
2017-03-14T02:17:56.730Z,0
2017-03-14T02:18:56.374Z,0
2017-03-14T02:19:56.771Z,0
2017-03-14T02:20:56.438Z,0
2017-03-14T02:21:56.074Z,0
2017-03-14T02:22:56.481Z,0
2017-03-14T02:23:56.151Z,0
2017-03-14T02:24:56.545Z,0
2017-03-14T02:25:56.201Z,0
2017-03-14T02:26:56.612Z,0
2017-03-14T02:27:56.679Z,0
2017-03-14T02:28:56.705Z,0
2017-03-14T02:29:56.352Z,0
2017-03-14T02:30:56.768Z,0
2017-03-14T02:31:56.814Z,0
2017-03-14T02:32:56.054Z,0
2017-03-14T02:33:56.455Z,0
2017-03-14T02:34:56.111Z,0
2017-03-14T02:35:56.916Z,0
2017-03-14T02:36:56.966Z,0
2017-03-14T02:37:56.197Z,0
2017-03-14T02:38:57.043Z,0
2017-03-14T02:39:56.650Z,0
2017-03-14T02:40:56.701Z,0
2017-03-14T02:41:56.744Z,0
2017-03-14T02:42:56.783Z,0
2017-03-14T02:43:57.180Z,0
2017-03-14T02:44:56.816Z,0
2017-03-14T02:45:56.467Z,0
2017-03-14T02:46:57.281Z,0
2017-03-14T02:47:56.921Z,0
2017-03-14T02:48:56.952Z,0
2017-03-14T02:49:57.340Z,0
2017-03-14T02:50:56.961Z,0
2017-03-14T02:51:56.984Z,0
2017-03-14T02:52:56.633Z,0
2017-03-14T02:53:56.708Z,0
2017-03-14T02:54:57.081Z,0
2017-03-14T02:55:57.955Z,0
2017-03-14T02:56:57.590Z,0
2017-03-14T02:57:57.239Z,0
2017-03-14T02:58:57.213Z,0
2017-03-14T02:59:57.245Z,0
2017-03-14T03:00:57.666Z,0
2017-03-14T03:01:57.324Z,0
2017-03-14T03:02:57.010Z,0
2017-03-14T03:03:57.435Z,0
2017-03-14T03:04:57.491Z,0
2017-03-14T03:05:57.056Z,0
2017-03-14T03:06:57.546Z,0
2017-03-14T03:07:57.956Z,0
2017-03-14T03:08:57.541Z,0
2017-03-14T03:09:57.193Z,0
2017-03-14T03:10:57.268Z,0
2017-03-14T03:11:57.313Z,0
2017-03-14T03:12:57.720Z,0
2017-03-14T03:13:58.101Z,0
2017-03-14T03:14:57.738Z,0
2017-03-14T03:15:57.403Z,0
2017-03-14T03:16:57.810Z,0
2017-03-14T03:17:58.228Z,0
2017-03-14T03:18:57.879Z,0
2017-03-14T03:19:58.352Z,0
2017-03-14T03:20:57.937Z,0
2017-03-14T03:21:58.806Z,0
2017-03-14T03:22:58.000Z,0
2017-03-14T03:23:57.699Z,0
2017-03-14T03:24:58.072Z,0
2017-03-14T03:25:58.164Z,0
2017-03-14T03:26:58.520Z,0
2017-03-14T03:27:58.238Z,0
2017-03-14T03:28:58.265Z,0
2017-03-14T03:29:58.250Z,0
2017-03-14T03:30:58.656Z,0
2017-03-14T03:31:58.349Z,0
2017-03-14T03:32:58.393Z,0
2017-03-14T03:33:59.204Z,0
2017-03-14T03:34:58.398Z,0
2017-03-14T03:35:58.884Z,0
2017-03-14T03:36:58.132Z,0
2017-03-14T03:37:59.271Z,0
2017-03-14T03:38:58.585Z,0
2017-03-14T03:39:58.955Z,0
2017-03-14T03:40:59.365Z,0
2017-03-14T03:41:59.404Z,0
2017-03-14T03:42:58.717Z,0
2017-03-14T03:43:59.113Z,0
2017-03-14T03:44:58.408Z,0
2017-03-14T03:45:59.150Z,0
2017-03-14T03:46:58.837Z,0
2017-03-14T03:47:58.886Z,0
2017-03-14T03:48:59.306Z,0
2017-03-14T03:49:59.338Z,0
2017-03-14T03:50:58.600Z,0
2017-03-14T03:51:59.769Z,0
2017-03-14T03:52:58.658Z,0
2017-03-14T03:53:59.473Z,0
2017-03-14T03:54:59.831Z,0
2017-03-14T03:55:59.143Z,0
2017-03-14T03:56:58.787Z,0
2017-03-14T03:57:59.162Z,0
2017-03-14T03:58:59.193Z,0
2017-03-14T03:59:58.883Z,0
2017-03-14T04:00:58.484Z,0
2017-03-14T04:02:00.119Z,0
2017-03-14T04:02:58.986Z,0
2017-03-14T04:03:59.032Z,0
2017-03-14T04:04:59.398Z,0
2017-03-14T04:05:59.084Z,0
2017-03-14T04:06:59.845Z,0
2017-03-14T04:07:59.483Z,0
2017-03-14T04:08:59.570Z,0
2017-03-14T04:09:59.558Z,0
2017-03-14T04:11:00.028Z,0
2017-03-14T04:11:59.671Z,0
2017-03-14T04:13:00.098Z,0
2017-03-14T04:13:59.296Z,0
2017-03-14T04:14:59.383Z,0
2017-03-14T04:16:00.521Z,0
2017-03-14T04:16:59.786Z,0
2017-03-14T04:17:59.811Z,0
2017-03-14T04:18:59.878Z,0
2017-03-14T04:20:00.315Z,0
2017-03-14T04:21:00.359Z,0
2017-03-14T04:21:59.952Z,0
2017-03-14T04:23:00.038Z,0
2017-03-14T04:24:00.068Z,0
2017-03-14T04:25:00.114Z,0
2017-03-14T04:25:59.708Z,0
2017-03-14T04:27:00.880Z,0
2017-03-14T04:27:59.759Z,0
2017-03-14T04:29:00.621Z,0
2017-03-14T04:30:00.204Z,0
2017-03-14T04:30:59.520Z,0
2017-03-14T04:31:59.512Z,0
2017-03-14T04:33:00.369Z,0
2017-03-14T04:34:00.786Z,0
2017-03-14T04:35:00.826Z,0
2017-03-14T04:36:00.463Z,0
2017-03-14T04:37:01.214Z,0
2017-03-14T04:38:00.866Z,0
2017-03-14T04:39:00.130Z,0
2017-03-14T04:40:00.561Z,0
2017-03-14T04:41:00.583Z,0
2017-03-14T04:42:01.058Z,0
2017-03-14T04:43:01.035Z,0
2017-03-14T04:44:01.123Z,0
2017-03-14T04:45:01.158Z,0
2017-03-14T04:46:01.187Z,0
2017-03-14T04:47:00.392Z,0
2017-03-14T04:48:01.272Z,0
2017-03-14T04:49:01.294Z,0
2017-03-14T04:50:01.317Z,0
2017-03-14T04:51:01.343Z,0
2017-03-14T04:52:01.331Z,0
2017-03-14T04:53:00.641Z,0
2017-03-14T04:54:00.671Z,0
2017-03-14T04:55:01.043Z,0
2017-03-14T04:56:01.072Z,0
2017-03-14T04:57:01.108Z,0
2017-03-14T04:58:01.595Z,0
2017-03-14T04:59:01.228Z,0
2017-03-14T05:00:01.265Z,0
2017-03-14T05:01:02.013Z,0
2017-03-14T05:02:01.330Z,0
2017-03-14T05:03:01.308Z,0
2017-03-14T05:04:01.783Z,0
2017-03-14T05:05:01.007Z,0
2017-03-14T05:06:01.823Z,0
2017-03-14T05:07:01.123Z,0
2017-03-14T05:08:01.472Z,0
2017-03-14T05:09:01.903Z,0
2017-03-14T05:10:02.381Z,0
2017-03-14T05:11:01.578Z,0
2017-03-14T05:12:01.622Z,0
2017-03-14T05:13:01.700Z,0
2017-03-14T05:14:02.062Z,0
2017-03-14T05:15:02.164Z,0
2017-03-14T05:16:02.135Z,0
2017-03-14T05:17:01.850Z,0
2017-03-14T05:18:01.872Z,0
2017-03-14T05:19:01.895Z,0
2017-03-14T05:20:02.317Z,0
2017-03-14T05:21:02.357Z,0
2017-03-14T05:22:02.002Z,0
2017-03-14T05:23:01.988Z,0
2017-03-14T05:24:02.010Z,0
2017-03-14T05:25:02.099Z,0
2017-03-14T05:26:02.082Z,5
2017-03-14T05:27:02.500Z,5
2017-03-14T05:28:02.556Z,5
2017-03-14T05:29:02.182Z,5
2017-03-14T05:30:02.214Z,5
2017-03-14T05:31:02.299Z,10
2017-03-14T05:32:02.665Z,10
2017-03-14T05:33:02.377Z,10
2017-03-14T05:34:02.010Z,10
2017-03-14T05:35:02.037Z,10
2017-03-14T05:36:02.467Z,15
2017-03-14T05:37:02.111Z,15
2017-03-14T05:38:02.136Z,15
2017-03-14T05:39:01.782Z,15
2017-03-14T05:40:01.770Z,20
2017-03-14T05:41:01.804Z,20
2017-03-14T05:42:02.292Z,20
2017-03-14T05:43:02.256Z,20
2017-03-14T05:44:03.129Z,25
2017-03-14T05:45:02.723Z,25
2017-03-14T05:46:03.140Z,25
2017-03-14T05:47:03.231Z,25
2017-03-14T05:48:02.482Z,25
2017-03-14T05:49:02.470Z,25
2017-03-14T05:50:03.681Z,30
2017-03-14T05:51:02.922Z,30
2017-03-14T05:52:03.342Z,30
2017-03-14T05:53:03.382Z,30
2017-03-14T05:54:03.405Z,30
2017-03-14T05:55:03.051Z,30
2017-03-14T05:56:03.532Z,30
2017-03-14T05:57:03.572Z,30
2017-03-14T05:58:03.597Z,35
2017-03-14T05:59:03.574Z,35
2017-03-14T06:00:03.672Z,30
2017-03-14T06:01:03.642Z,30
2017-03-14T06:02:03.738Z,35
2017-03-14T06:03:03.716Z,35
2017-03-14T06:04:03.417Z,40
2017-03-14T06:05:04.170Z,40
2017-03-14T06:06:03.426Z,45
2017-03-14T06:07:03.846Z,45
2017-03-14T06:08:03.490Z,50
2017-03-14T06:09:03.546Z,55
2017-03-14T06:10:04.005Z,55
2017-03-14T06:11:04.047Z,55
2017-03-14T06:12:03.627Z,60
2017-03-14T06:13:03.927Z,65
2017-03-14T06:14:04.530Z,65
2017-03-14T06:15:04.199Z,70
2017-03-14T06:16:03.841Z,70
2017-03-14T06:17:03.893Z,70
2017-03-14T06:18:04.271Z,70
2017-03-14T06:19:03.860Z,70
2017-03-14T06:20:04.321Z,70
2017-03-14T06:21:03.934Z,65
2017-03-14T06:22:03.604Z,55
2017-03-14T06:23:03.656Z,55
2017-03-14T06:24:03.662Z,60
2017-03-14T06:25:03.293Z,60
2017-03-14T06:26:03.712Z,55
2017-03-14T06:27:04.968Z,55
2017-03-14T06:28:03.397Z,50
2017-03-14T06:29:03.471Z,50
2017-03-14T06:30:03.848Z,45
2017-03-14T06:31:04.718Z,45
2017-03-14T06:32:04.304Z,45
2017-03-14T06:33:04.787Z,45
2017-03-14T06:34:03.988Z,45
2017-03-14T06:35:04.792Z,50
2017-03-14T06:36:04.436Z,50
2017-03-14T06:37:04.918Z,55
2017-03-14T06:38:04.561Z,60
2017-03-14T06:39:04.989Z,60
2017-03-14T06:40:05.419Z,65
2017-03-14T06:41:05.380Z,75
2017-03-14T06:42:04.673Z,85
2017-03-14T06:43:04.743Z,85
2017-03-14T06:44:04.713Z,90
2017-03-14T06:45:04.425Z,100
2017-03-14T06:46:04.470Z,110
2017-03-14T06:47:05.604Z,120
2017-03-14T06:48:05.836Z,130
2017-03-14T06:49:05.059Z,135
2017-03-14T06:50:05.701Z,145
2017-03-14T06:51:05.011Z,145
2017-03-14T06:52:05.047Z,150
2017-03-14T06:53:04.682Z,155
2017-03-14T06:54:05.080Z,160
2017-03-14T06:55:05.478Z,160
2017-03-14T06:56:05.273Z,155
2017-03-14T06:57:05.164Z,145
2017-03-14T06:58:05.968Z,140
2017-03-14T06:59:05.234Z,125
2017-03-14T07:00:06.104Z,105
2017-03-14T07:01:04.911Z,70
2017-03-14T07:02:05.724Z,55
2017-03-14T07:03:05.040Z,50
2017-03-14T07:04:05.454Z,45
2017-03-14T07:05:05.892Z,40
2017-03-14T07:06:05.853Z,40
2017-03-14T07:07:05.507Z,35
2017-03-14T07:08:06.317Z,35
2017-03-14T07:09:05.966Z,35
2017-03-14T07:10:06.390Z,35
2017-03-14T07:11:06.083Z,35
2017-03-14T07:12:06.126Z,35
2017-03-14T07:13:05.773Z,40
2017-03-14T07:14:05.753Z,40
2017-03-14T07:15:05.850Z,40
2017-03-14T07:16:05.911Z,40
2017-03-14T07:17:05.939Z,45
2017-03-14T07:18:06.270Z,45
2017-03-14T07:19:05.582Z,50
2017-03-14T07:20:06.010Z,50
2017-03-14T07:21:05.996Z,55
2017-03-14T07:22:06.023Z,60
2017-03-14T07:23:06.051Z,60
2017-03-14T07:24:05.392Z,60
2017-03-14T07:25:06.575Z,60
2017-03-14T07:26:06.348Z,60
2017-03-14T07:27:06.661Z,65
2017-03-14T07:28:06.285Z,65
2017-03-14T07:29:05.943Z,65
2017-03-14T07:30:06.356Z,70
2017-03-14T07:31:06.335Z,75
2017-03-14T07:32:06.814Z,75
2017-03-14T07:33:07.173Z,75
2017-03-14T07:34:06.445Z,75
2017-03-14T07:35:06.502Z,75
2017-03-14T07:36:06.676Z,70
2017-03-14T07:37:06.159Z,75
2017-03-14T07:38:06.248Z,85
2017-03-14T07:39:07.012Z,90
2017-03-14T07:40:06.262Z,95
2017-03-14T07:41:07.070Z,105
2017-03-14T07:42:07.187Z,115
2017-03-14T07:43:06.073Z,120
2017-03-14T07:44:06.418Z,125
2017-03-14T07:45:06.820Z,125
2017-03-14T07:46:07.249Z,130
2017-03-14T07:47:06.941Z,150
2017-03-14T07:48:07.460Z,160
2017-03-14T07:49:07.012Z,160
2017-03-14T07:50:06.991Z,155
2017-03-14T07:51:07.425Z,160
2017-03-14T07:52:07.447Z,160
2017-03-14T07:53:07.480Z,155
2017-03-14T07:54:07.136Z,165
2017-03-14T07:55:06.791Z,170
2017-03-14T07:56:07.205Z,170
2017-03-14T07:57:08.008Z,175
2017-03-14T07:58:08.052Z,190
2017-03-14T07:59:07.322Z,225
2017-03-14T08:00:07.728Z,255
2017-03-14T08:01:07.044Z,285
2017-03-14T08:02:07.045Z,330
2017-03-14T08:03:07.504Z,380
2017-03-14T08:04:07.933Z,395
2017-03-14T08:05:07.908Z,375
2017-03-14T08:06:07.999Z,385
2017-03-14T08:07:07.655Z,395
2017-03-14T08:08:07.264Z,440
2017-03-14T08:09:07.674Z,410
2017-03-14T08:10:08.128Z,370
2017-03-14T08:11:07.821Z,345
2017-03-14T08:12:07.443Z,305
2017-03-14T08:13:07.869Z,300
2017-03-14T08:14:07.463Z,325
2017-03-14T08:15:08.729Z,365
2017-03-14T08:16:07.978Z,385
2017-03-14T08:17:08.740Z,395
2017-03-14T08:18:07.996Z,420
2017-03-14T08:19:08.484Z,420
2017-03-14T08:20:07.737Z,445
2017-03-14T08:21:07.735Z,475
2017-03-14T08:22:07.864Z,465
2017-03-14T08:23:08.037Z,500
2017-03-14T08:24:08.227Z,525
2017-03-14T08:25:07.709Z,515
2017-03-14T08:26:07.553Z,545
2017-03-14T08:27:07.984Z,470
2017-03-14T08:28:07.604Z,470
2017-03-14T08:29:08.025Z,500
2017-03-14T08:30:08.837Z,465
2017-03-14T08:31:07.764Z,450
2017-03-14T08:32:08.910Z,475
2017-03-14T08:33:07.798Z,475
2017-03-14T08:34:08.738Z,460
2017-03-14T08:35:08.640Z,460
2017-03-14T08:36:08.743Z,460
2017-03-14T08:37:09.161Z,465
2017-03-14T08:38:08.758Z,440
2017-03-14T08:39:08.457Z,430
2017-03-14T08:40:08.497Z,430
2017-03-14T08:41:08.882Z,450
2017-03-14T08:42:08.141Z,450
2017-03-14T08:43:09.338Z,470
2017-03-14T08:44:08.260Z,480
2017-03-14T08:45:08.700Z,500
2017-03-14T08:46:08.687Z,555
2017-03-14T08:47:08.770Z,580
2017-03-14T08:48:08.872Z,620
2017-03-14T08:49:08.404Z,690
2017-03-14T08:50:08.488Z,680
2017-03-14T08:51:08.873Z,715
2017-03-14T08:52:08.522Z,675
2017-03-14T08:53:08.949Z,625
2017-03-14T08:54:09.430Z,630
2017-03-14T08:55:09.482Z,655
2017-03-14T08:56:09.197Z,710
2017-03-14T08:57:10.223Z,680
2017-03-14T08:58:09.602Z,705
2017-03-14T08:59:09.154Z,660
2017-03-14T09:00:09.225Z,775
2017-03-14T09:01:09.710Z,995
2017-03-14T09:02:08.922Z,1140
2017-03-14T09:03:09.394Z,1145
2017-03-14T09:04:09.845Z,1505
2017-03-14T09:05:09.088Z,1470
2017-03-14T09:06:09.475Z,1400
2017-03-14T09:07:09.949Z,1165
2017-03-14T09:08:09.214Z,1085
2017-03-14T09:09:09.976Z,1075
2017-03-14T09:10:09.310Z,1120
2017-03-14T09:11:10.067Z,1205
2017-03-14T09:12:09.335Z,1355
2017-03-14T09:13:09.786Z,1465
2017-03-14T09:14:09.470Z,1520
2017-03-14T09:15:10.293Z,1515
2017-03-14T09:16:10.472Z,1405
2017-03-14T09:17:09.934Z,1305
2017-03-14T09:18:10.441Z,1250
2017-03-14T09:19:10.800Z,1175
2017-03-14T09:20:10.120Z,1080
2017-03-14T09:21:10.114Z,1120
2017-03-14T09:22:10.210Z,1145
2017-03-14T09:23:10.596Z,1185
2017-03-14T09:24:10.250Z,1390
2017-03-14T09:25:10.340Z,1440
2017-03-14T09:26:39.693Z,1590
2017-03-14T09:27:39.913Z,1580
2017-03-14T09:28:39.961Z,1170
2017-03-14T09:29:40.368Z,900
2017-03-14T09:30:39.632Z,970
2017-03-14T09:31:40.072Z,1315
2017-03-14T09:32:40.132Z,865
2017-03-14T09:33:40.107Z,815
2017-03-14T09:34:40.827Z,960
2017-03-14T09:35:40.209Z,1115
2017-03-14T09:36:39.864Z,1125
2017-03-14T09:37:40.680Z,855
2017-03-14T09:38:40.847Z,875
2017-03-14T09:39:40.768Z,990
2017-03-14T09:40:40.898Z,930
2017-03-14T09:41:40.085Z,1045
2017-03-14T09:42:40.133Z,945
2017-03-14T09:43:41.040Z,1175
2017-03-14T09:44:41.058Z,1155
2017-03-14T09:45:41.049Z,1260
2017-03-14T09:46:40.705Z,1185
2017-03-14T09:47:40.791Z,635
2017-03-14T09:48:41.176Z,700
2017-03-14T09:49:40.888Z,895
2017-03-14T09:50:41.271Z,680
2017-03-14T09:51:40.575Z,940
2017-03-14T09:52:41.409Z,1040
2017-03-14T09:53:40.634Z,1255
2017-03-14T09:54:40.739Z,1415
2017-03-14T09:55:41.157Z,1550
2017-03-14T09:56:41.982Z,1560
2017-03-14T09:57:41.651Z,1080
2017-03-14T09:58:42.011Z,1175
2017-03-14T09:59:41.342Z,930
2017-03-14T10:00:41.770Z,925
2017-03-14T10:01:41.760Z,775
2017-03-14T10:02:42.191Z,735
2017-03-14T10:03:41.855Z,765
2017-03-14T10:04:41.570Z,840
2017-03-14T10:05:41.562Z,950
2017-03-14T10:06:41.221Z,735
2017-03-14T10:07:41.646Z,740
2017-03-14T10:08:41.696Z,700
2017-03-14T10:09:41.793Z,645
2017-03-14T10:10:41.831Z,705
2017-03-14T10:11:41.460Z,765
2017-03-14T10:12:42.261Z,730
2017-03-14T10:13:43.273Z,935
2017-03-14T10:14:42.346Z,1350
2017-03-14T10:15:42.449Z,1410
2017-03-14T10:16:42.123Z,765
2017-03-14T10:17:42.480Z,605
2017-03-14T10:18:42.190Z,1265
2017-03-14T10:19:42.562Z,1000
2017-03-14T10:20:42.610Z,755
2017-03-14T10:21:42.709Z,770
2017-03-14T10:22:42.277Z,1035
2017-03-14T10:23:42.582Z,850
2017-03-14T10:24:42.353Z,850
2017-03-14T10:25:42.108Z,1440
2017-03-14T10:26:42.771Z,830
2017-03-14T10:27:42.809Z,1080
2017-03-14T10:28:42.566Z,1145
2017-03-14T10:29:42.542Z,1270
2017-03-14T10:30:42.287Z,1800
2017-03-14T10:31:43.013Z,1585
2017-03-14T10:32:42.731Z,835
2017-03-14T10:33:42.731Z,1400
2017-03-14T10:34:42.514Z,865
2017-03-14T10:35:42.869Z,985
2017-03-14T10:36:42.919Z,940
2017-03-14T10:37:42.961Z,1220
2017-03-14T10:38:42.707Z,1555
2017-03-14T10:39:43.045Z,1575
2017-03-14T10:40:42.745Z,1665
2017-03-14T10:41:42.836Z,1575
2017-03-14T10:42:43.190Z,990
2017-03-14T10:43:42.954Z,1290
2017-03-14T10:44:42.930Z,1260
2017-03-14T10:45:43.030Z,1275
2017-03-14T10:46:43.031Z,1420
2017-03-14T10:47:43.080Z,1695
2017-03-14T10:48:43.121Z,1575
2017-03-14T10:49:43.182Z,1135
2017-03-14T10:50:43.217Z,1090
2017-03-14T10:51:43.321Z,900
2017-03-14T10:52:43.689Z,775
2017-03-14T10:53:43.726Z,695
2017-03-14T10:54:43.463Z,1075
2017-03-14T10:55:44.069Z,1020
2017-03-14T10:56:43.856Z,705
2017-03-14T10:57:43.925Z,875
2017-03-14T10:58:43.790Z,760
2017-03-14T10:59:44.122Z,740
2017-03-14T11:00:43.997Z,1090
2017-03-14T11:01:44.031Z,705
2017-03-14T11:02:44.086Z,965
2017-03-14T11:03:44.191Z,690
2017-03-14T11:04:43.912Z,765
2017-03-14T11:05:44.213Z,700
2017-03-14T11:06:44.323Z,790
2017-03-14T11:07:44.002Z,1005
2017-03-14T11:08:44.048Z,960
2017-03-14T11:09:44.113Z,715
2017-03-14T11:10:44.185Z,615
2017-03-14T11:11:44.558Z,570
2017-03-14T11:12:44.888Z,690
2017-03-14T11:13:44.341Z,620
2017-03-14T11:14:44.317Z,725
2017-03-14T11:15:44.714Z,680
2017-03-14T11:16:44.459Z,775
2017-03-14T11:17:45.102Z,1300
2017-03-14T11:18:44.792Z,905
2017-03-14T11:19:44.883Z,660
2017-03-14T11:20:44.580Z,650
2017-03-14T11:21:44.966Z,550
2017-03-14T11:22:44.975Z,540
2017-03-14T11:23:44.797Z,505
2017-03-14T11:24:45.388Z,495
2017-03-14T11:25:45.151Z,470
2017-03-14T11:26:44.880Z,445
2017-03-14T11:27:45.185Z,460
2017-03-14T11:28:45.232Z,475
2017-03-14T11:29:45.815Z,490
2017-03-14T11:30:45.316Z,485
2017-03-14T11:31:45.353Z,490
2017-03-14T11:32:45.107Z,485
2017-03-14T11:33:45.477Z,440
2017-03-14T11:34:45.486Z,420
2017-03-14T11:35:45.836Z,405
2017-03-14T11:36:45.262Z,410
2017-03-14T11:37:45.331Z,400
2017-03-14T11:38:45.704Z,410
2017-03-14T11:39:45.736Z,410
2017-03-14T11:40:45.450Z,405
2017-03-14T11:41:46.077Z,410
2017-03-14T11:42:45.514Z,410
2017-03-14T11:43:45.647Z,410
2017-03-14T11:44:45.597Z,400
2017-03-14T11:45:45.636Z,395
2017-03-14T11:46:45.677Z,390
2017-03-14T11:47:46.023Z,385
2017-03-14T11:48:45.771Z,385
2017-03-14T11:49:46.055Z,410
2017-03-14T11:50:46.245Z,400
2017-03-14T11:51:45.944Z,385
2017-03-14T11:52:46.273Z,390
2017-03-14T11:53:46.031Z,410
2017-03-14T11:54:46.308Z,420
2017-03-14T11:55:46.386Z,435
2017-03-14T11:56:46.120Z,435
2017-03-14T11:57:46.729Z,435
2017-03-14T11:58:46.531Z,435
2017-03-14T11:59:46.862Z,430
2017-03-14T12:00:46.292Z,420
2017-03-14T12:01:46.338Z,420
2017-03-14T12:02:46.334Z,405
2017-03-14T12:03:46.417Z,405
2017-03-14T12:04:46.763Z,405
2017-03-14T12:05:46.495Z,400
2017-03-14T12:06:46.600Z,390
2017-03-14T12:07:46.537Z,375
2017-03-14T12:08:47.239Z,360
2017-03-14T12:09:46.920Z,345
2017-03-14T12:10:46.657Z,335
2017-03-14T12:11:47.002Z,325
2017-03-14T12:12:47.351Z,310
2017-03-14T12:13:47.441Z,300
2017-03-14T12:14:47.125Z,310
2017-03-14T12:15:47.167Z,310
2017-03-14T12:16:47.282Z,310
2017-03-14T12:17:47.910Z,315
2017-03-14T12:18:47.286Z,320
2017-03-14T12:19:47.627Z,315
2017-03-14T12:20:47.427Z,305
2017-03-14T12:21:47.148Z,285
2017-03-14T12:22:47.188Z,280
2017-03-14T12:23:47.486Z,280
2017-03-14T12:24:47.567Z,300
2017-03-14T12:25:47.608Z,325
2017-03-14T12:26:47.342Z,340
2017-03-14T12:27:47.370Z,335
2017-03-14T12:28:47.377Z,330
2017-03-14T12:29:47.781Z,325
2017-03-14T12:30:47.507Z,325
2017-03-14T12:31:48.023Z,330
2017-03-14T12:32:47.582Z,335
2017-03-14T12:33:48.190Z,335
2017-03-14T12:34:48.281Z,330
2017-03-14T12:35:48.282Z,325
2017-03-14T12:36:48.306Z,330
2017-03-14T12:37:48.041Z,335
2017-03-14T12:38:48.442Z,340
2017-03-14T12:39:47.816Z,345
2017-03-14T12:40:48.544Z,355
2017-03-14T12:41:48.807Z,360
2017-03-14T12:42:48.270Z,360
2017-03-14T12:43:48.329Z,355
2017-03-14T12:44:48.626Z,355
2017-03-14T12:45:48.412Z,355
2017-03-14T12:46:48.404Z,340
2017-03-14T12:47:48.136Z,335
2017-03-14T12:48:48.585Z,335
2017-03-14T12:49:48.522Z,325
2017-03-14T12:50:48.559Z,310
2017-03-14T12:51:48.295Z,290
2017-03-14T12:52:48.642Z,285
2017-03-14T12:53:48.386Z,275
2017-03-14T12:54:48.418Z,275
2017-03-14T12:55:48.819Z,265
2017-03-14T12:56:48.537Z,260
2017-03-14T12:57:48.895Z,240
2017-03-14T12:58:48.921Z,235
2017-03-14T12:59:48.917Z,215
2017-03-14T13:00:49.000Z,195
2017-03-14T13:01:48.698Z,190
2017-03-14T13:02:48.781Z,185
2017-03-14T13:03:49.084Z,170
2017-03-14T13:04:48.858Z,165
2017-03-14T13:05:49.153Z,155
2017-03-14T13:06:49.248Z,155
2017-03-14T13:07:48.926Z,155
2017-03-14T13:08:48.978Z,150
2017-03-14T13:09:49.318Z,150
2017-03-14T13:10:49.091Z,150
2017-03-14T13:11:49.132Z,150
2017-03-14T13:12:49.341Z,150
2017-03-14T13:13:49.192Z,150
2017-03-14T13:14:49.816Z,150
2017-03-14T13:15:49.866Z,150
2017-03-14T13:16:49.288Z,150
2017-03-14T13:17:49.372Z,145
2017-03-14T13:18:49.708Z,140
2017-03-14T13:19:49.701Z,140
2017-03-14T13:20:50.054Z,140
2017-03-14T13:21:49.826Z,140
2017-03-14T13:22:49.821Z,140
2017-03-14T13:23:49.603Z,135
2017-03-14T13:24:50.206Z,130
2017-03-14T13:25:50.009Z,130
2017-03-14T13:26:50.330Z,130
2017-03-14T13:27:49.711Z,130
2017-03-14T13:28:49.783Z,130
2017-03-14T13:29:49.934Z,130
2017-03-14T13:30:50.432Z,130
2017-03-14T13:31:49.868Z,135
2017-03-14T13:32:50.217Z,135
2017-03-14T13:33:50.311Z,135
2017-03-14T13:34:50.283Z,135
2017-03-14T13:35:50.322Z,130
2017-03-14T13:36:50.661Z,130
2017-03-14T13:37:50.144Z,130
2017-03-14T13:38:50.794Z,130
2017-03-14T13:39:50.178Z,130
2017-03-14T13:40:50.212Z,130
2017-03-14T13:41:50.299Z,125
2017-03-14T13:42:50.640Z,125
2017-03-14T13:43:50.366Z,125
2017-03-14T13:44:50.383Z,125
2017-03-14T13:45:50.406Z,130
2017-03-14T13:46:51.051Z,130
2017-03-14T13:47:50.522Z,130
2017-03-14T13:48:50.870Z,135
2017-03-14T13:49:50.608Z,125
2017-03-14T13:50:50.951Z,125
2017-03-14T13:51:50.641Z,130
2017-03-14T13:52:51.639Z,130
2017-03-14T13:53:50.710Z,135
2017-03-14T13:54:51.105Z,130
2017-03-14T13:55:51.452Z,130
2017-03-14T13:56:50.828Z,130
2017-03-14T13:57:50.869Z,130
2017-03-14T13:58:50.902Z,130
2017-03-14T13:59:50.973Z,130
2017-03-14T14:00:51.024Z,130
2017-03-14T14:01:51.321Z,130
2017-03-14T14:02:51.360Z,130
2017-03-14T14:03:51.450Z,130
2017-03-14T14:04:51.800Z,125
2017-03-14T14:05:51.777Z,125
2017-03-14T14:06:51.212Z,125
2017-03-14T14:07:51.248Z,125
2017-03-14T14:08:51.299Z,125
2017-03-14T14:09:51.629Z,125
2017-03-14T14:10:52.020Z,125
2017-03-14T14:11:51.447Z,130